createdAt,value
2023-03-25T00:00:19.368Z,100393.31
2023-03-25T00:02:52.692Z,100402.03
2023-03-25T00:05:21.979Z,100398.84
2023-03-25T00:07:53.007Z,100398.53
2023-03-25T00:10:20.962Z,100408.56
2023-03-25T00:12:48.759Z,100389.47
2023-03-25T00:15:16.683Z,100388.94
2023-03-25T00:17:44.973Z,100396.34
2023-03-25T00:20:14.336Z,100389.47
2023-03-25T00:22:44.905Z,100393.13
2023-03-25T00:25:18.030Z,100387.44
2023-03-25T00:27:47.250Z,100384.56
2023-03-25T00:30:16.355Z,100388.75
2023-03-25T00:32:53.371Z,100384.72
2023-03-25T00:35:22.538Z,100380.03
2023-03-25T00:38:00.632Z,100385.03
2023-03-25T00:40:35.177Z,100374.66
2023-03-25T00:43:04.590Z,100379.88
2023-03-25T00:45:32.841Z,100374.63
2023-03-25T00:48:00.937Z,100378.94
2023-03-25T00:50:28.742Z,100368.88
2023-03-25T00:52:56.572Z,100372.22
2023-03-25T00:55:24.476Z,100373.19
2023-03-25T00:57:52.299Z,100369.31
2023-03-25T01:00:20.607Z,100375.72
2023-03-25T01:02:54.358Z,100360.09
2023-03-25T01:05:22.370Z,100362.09
2023-03-25T01:07:52.116Z,100341.00
2023-03-25T01:10:20.117Z,100346.88
2023-03-25T01:12:48.566Z,100339.63
2023-03-25T01:15:16.562Z,100345.50
2023-03-25T01:17:44.566Z,100337.56
2023-03-25T01:20:12.462Z,100334.91
2023-03-25T01:22:40.530Z,100338.75
2023-03-25T01:25:08.751Z,100329.22
2023-03-25T01:27:36.494Z,100322.84
2023-03-25T01:30:04.755Z,100328.69
2023-03-25T01:32:32.599Z,100334.47
2023-03-25T01:35:00.402Z,100327.41
2023-03-25T01:37:29.669Z,100325.69
2023-03-25T01:39:57.512Z,100320.34
2023-03-25T01:42:25.424Z,100325.91
2023-03-25T01:44:53.245Z,100324.19
2023-03-25T01:47:21.159Z,100319.34
2023-03-25T01:49:50.605Z,100318.00
2023-03-25T01:52:25.937Z,100316.28
2023-03-25T01:54:55.314Z,100315.00
2023-03-25T01:57:26.075Z,100315.22
2023-03-25T01:59:55.863Z,100303.19
2023-03-25T02:02:36.858Z,100303.81
2023-03-25T02:05:11.242Z,100285.75
2023-03-25T02:07:43.182Z,100282.84
2023-03-25T02:10:12.968Z,100277.81
2023-03-25T02:12:41.806Z,100282.13
2023-03-25T02:15:11.301Z,100285.63
2023-03-25T02:17:57.213Z,100275.44
2023-03-25T02:20:43.439Z,100268.66
2023-03-25T02:23:42.616Z,100269.03
2023-03-25T02:26:37.160Z,100268.91
2023-03-25T02:29:13.890Z,100265.00
2023-03-25T02:31:48.512Z,100264.22
2023-03-25T02:34:49.088Z,100263.63
2023-03-25T02:38:00.343Z,100260.69
2023-03-25T02:40:41.140Z,100255.25
2023-03-25T02:43:31.048Z,100248.72
2023-03-25T02:46:04.535Z,100253.88
2023-03-25T02:48:43.169Z,100254.81
2023-03-25T02:51:21.101Z,100248.50
2023-03-25T02:53:51.541Z,100254.19
2023-03-25T02:56:23.090Z,100258.03
2023-03-25T02:58:55.882Z,100258.47
2023-03-25T03:01:27.073Z,100259.66
2023-03-25T03:03:57.253Z,100263.75
2023-03-25T03:06:25.696Z,100264.63
2023-03-25T03:09:37.985Z,100267.41
2023-03-25T03:12:36.574Z,100253.38
2023-03-25T03:15:07.442Z,100248.00
2023-03-25T03:18:00.888Z,100245.47
2023-03-25T03:20:44.515Z,100248.66
2023-03-25T03:23:24.653Z,100249.09
2023-03-25T03:26:00.187Z,100251.84
2023-03-25T03:28:35.200Z,100260.94
2023-03-25T03:31:48.732Z,100257.59
2023-03-25T03:34:43.292Z,100264.00
2023-03-25T03:37:37.761Z,100265.16
2023-03-25T03:40:10.498Z,100263.06
2023-03-25T03:42:44.585Z,100266.41
2023-03-25T03:45:21.236Z,100274.72
2023-03-25T03:47:54.640Z,100281.66
2023-03-25T03:50:32.710Z,100281.53
2023-03-25T03:53:09.778Z,100279.38
2023-03-25T03:56:25.103Z,100276.63
2023-03-25T03:58:59.693Z,100282.13
2023-03-25T04:01:35.025Z,100276.63
2023-03-25T04:04:11.069Z,100279.22
2023-03-25T04:06:51.157Z,100271.50
2023-03-25T04:09:34.846Z,100280.91
2023-03-25T04:12:06.004Z,100276.78
2023-03-25T04:14:33.996Z,100282.97
2023-03-25T04:17:01.765Z,100276.16
2023-03-25T04:19:29.547Z,100286.09
2023-03-25T04:21:57.368Z,100289.31
2023-03-25T04:24:25.304Z,100291.22
2023-03-25T04:26:53.321Z,100290.75
2023-03-25T04:29:21.149Z,100286.06
2023-03-25T04:31:50.791Z,100278.22
2023-03-25T04:34:20.714Z,100293.28
2023-03-25T04:36:51.397Z,100289.59
2023-03-25T04:39:22.724Z,100286.69
2023-03-25T04:41:51.160Z,100296.72
2023-03-25T04:44:19.062Z,100300.00
2023-03-25T04:46:48.005Z,100298.16
2023-03-25T04:49:21.450Z,100303.81
2023-03-25T04:51:51.845Z,100296.47
2023-03-25T04:54:21.233Z,100301.06
2023-03-25T04:56:50.040Z,100292.34
2023-03-25T04:59:24.476Z,100296.34
2023-03-25T05:01:53.179Z,100303.28
2023-03-25T05:04:21.767Z,100304.56
2023-03-25T05:06:51.465Z,100305.00
2023-03-25T05:09:24.274Z,100305.44
2023-03-25T05:11:53.635Z,100312.47
2023-03-25T05:14:22.324Z,100309.78
2023-03-25T05:16:50.648Z,100314.00
2023-03-25T05:19:19.256Z,100317.38
2023-03-25T05:21:47.270Z,100312.31
2023-03-25T05:24:15.126Z,100322.59
2023-03-25T05:26:43.366Z,100314.59
2023-03-25T05:29:14.395Z,100320.31
2023-03-25T05:31:45.792Z,100316.78
2023-03-25T05:34:17.502Z,100313.97
2023-03-25T05:36:46.027Z,100314.94
2023-03-25T05:39:14.079Z,100312.69
2023-03-25T05:41:42.471Z,100314.69
2023-03-25T05:44:14.908Z,100306.16
2023-03-25T05:46:42.964Z,100297.81
2023-03-25T05:49:10.864Z,100299.22
2023-03-25T05:51:38.794Z,100302.44
2023-03-25T05:54:11.750Z,100306.63
2023-03-25T05:56:40.418Z,100308.56
2023-03-25T05:59:09.217Z,100302.00
2023-03-25T06:01:38.075Z,100303.03
2023-03-25T06:04:10.490Z,100304.44
2023-03-25T06:06:40.356Z,100309.16
2023-03-25T06:09:08.573Z,100313.91
2023-03-25T06:11:47.101Z,100308.00
2023-03-25T06:14:15.039Z,100319.16
2023-03-25T06:16:44.351Z,100317.84
2023-03-25T06:19:12.211Z,100320.13
2023-03-25T06:21:40.251Z,100321.88
2023-03-25T06:24:08.637Z,100324.94
2023-03-25T06:26:37.352Z,100332.97
2023-03-25T06:29:05.312Z,100330.03
2023-03-25T06:31:34.197Z,100337.59
2023-03-25T06:34:03.069Z,100330.16
2023-03-25T06:36:31.748Z,100337.19
2023-03-25T06:38:59.684Z,100332.97
2023-03-25T06:41:28.388Z,100332.56
2023-03-25T06:44:24.973Z,100322.59
2023-03-25T06:47:31.488Z,100333.16
2023-03-25T06:49:59.632Z,100324.97
2023-03-25T06:52:27.596Z,100324.72
2023-03-25T06:54:55.796Z,100324.41
2023-03-25T06:57:23.823Z,100326.56
2023-03-25T06:59:51.715Z,100321.53
2023-03-25T07:02:19.636Z,100322.91
2023-03-25T07:04:47.568Z,100321.44
2023-03-25T07:07:15.515Z,100324.19
2023-03-25T07:09:43.376Z,100324.81
2023-03-25T07:12:11.274Z,100321.66
2023-03-25T07:14:39.198Z,100332.22
2023-03-25T07:17:07.200Z,100323.97
2023-03-25T07:19:35.074Z,100317.53
2023-03-25T07:22:02.915Z,100333.94
2023-03-25T07:24:30.828Z,100337.44
2023-03-25T07:26:58.734Z,100321.91
2023-03-25T07:29:28.816Z,100336.16
2023-03-25T07:31:56.781Z,100320.25
2023-03-25T07:34:25.106Z,100325.59
2023-03-25T07:36:53.012Z,100349.75
2023-03-25T07:39:22.115Z,100332.69
2023-03-25T07:41:49.978Z,100325.72
2023-03-25T07:44:29.306Z,100333.09
2023-03-25T07:46:57.308Z,100325.41
2023-03-25T07:49:25.364Z,100324.22
2023-03-25T07:51:53.303Z,100330.44
2023-03-25T07:54:22.932Z,100339.47
2023-03-25T07:56:53.039Z,100330.28
2023-03-25T07:59:20.999Z,100327.59
2023-03-25T08:01:49.076Z,100331.78
2023-03-25T08:04:17.076Z,100329.28
2023-03-25T08:06:44.980Z,100317.19
2023-03-25T08:09:13.072Z,100328.41
2023-03-25T08:11:41.078Z,100334.28
2023-03-25T08:14:09.392Z,100345.88
2023-03-25T08:16:37.480Z,100336.63
2023-03-25T08:19:05.531Z,100337.47
2023-03-25T08:21:33.476Z,100327.91
2023-03-25T08:24:05.001Z,100327.91
2023-03-25T08:26:34.579Z,100339.47
2023-03-25T08:29:02.987Z,100346.09
2023-03-25T08:31:32.883Z,100342.66
2023-03-25T08:34:02.524Z,100348.69
2023-03-25T08:36:30.707Z,100345.16
2023-03-25T08:38:58.607Z,100357.34
2023-03-25T08:41:26.906Z,100347.63
2023-03-25T08:43:54.781Z,100365.94
2023-03-25T08:46:23.475Z,100370.16
2023-03-25T08:48:51.504Z,100356.56
2023-03-25T08:51:19.434Z,100369.78
2023-03-25T08:53:47.611Z,100358.53
2023-03-25T08:56:15.809Z,100366.72
2023-03-25T08:58:43.852Z,100358.84
2023-03-25T09:01:12.362Z,100365.31
2023-03-25T09:03:42.451Z,100373.84
2023-03-25T09:06:10.554Z,100381.31
2023-03-25T09:08:38.456Z,100375.09
2023-03-25T09:11:06.535Z,100389.56
2023-03-25T09:13:34.373Z,100378.09
2023-03-25T09:16:02.225Z,100371.38
2023-03-25T09:18:32.215Z,100354.19
2023-03-25T09:21:01.021Z,100360.16
2023-03-25T09:23:29.110Z,100358.34
2023-03-25T09:26:02.241Z,100354.09
2023-03-25T09:28:30.473Z,100348.38
2023-03-25T09:30:58.552Z,100356.81
2023-03-25T09:33:27.841Z,100340.59
2023-03-25T09:35:55.929Z,100352.09
2023-03-25T09:38:23.820Z,100352.97
2023-03-25T09:40:51.739Z,100334.13
2023-03-25T09:44:12.453Z,100340.97
2023-03-25T09:46:40.780Z,100340.16
2023-03-25T09:49:18.122Z,100335.88
2023-03-25T09:51:48.562Z,100354.19
2023-03-25T09:54:26.147Z,100360.50
2023-03-25T09:56:57.990Z,100353.19
2023-03-25T09:59:49.752Z,100348.59
2023-03-25T10:02:41.311Z,100339.09
2023-03-25T10:05:15.732Z,100325.94
2023-03-25T10:08:30.530Z,100327.94
2023-03-25T10:11:07.710Z,100325.72
2023-03-25T10:13:53.616Z,100331.84
2023-03-25T10:16:33.652Z,100323.00
2023-03-25T10:19:43.744Z,100309.75
2023-03-25T10:22:26.043Z,100309.63
2023-03-25T10:25:01.406Z,100310.72
2023-03-25T10:27:57.749Z,100326.41
2023-03-25T10:30:32.044Z,100302.63
2023-03-25T10:33:05.117Z,100305.63
2023-03-25T10:35:46.457Z,100309.94
2023-03-25T10:38:21.010Z,100302.25
2023-03-25T10:40:51.880Z,100293.00
2023-03-25T10:43:31.722Z,100293.03
2023-03-25T10:46:16.831Z,100297.59
2023-03-25T10:48:47.434Z,100297.59
2023-03-25T10:51:29.296Z,100309.91
2023-03-25T10:53:58.726Z,100307.78
2023-03-25T10:56:41.339Z,100302.06
2023-03-25T10:59:35.269Z,100294.84
2023-03-25T11:02:27.277Z,100285.63
2023-03-25T11:05:02.057Z,100283.31
2023-03-25T11:07:41.909Z,100296.44
2023-03-25T11:10:26.441Z,100294.69
2023-03-25T11:12:57.144Z,100306.94
2023-03-25T11:15:38.197Z,100283.16
2023-03-25T11:18:15.715Z,100287.25
2023-03-25T11:20:53.651Z,100277.44
2023-03-25T11:23:36.723Z,100275.81
2023-03-25T11:26:23.767Z,100263.09
2023-03-25T11:29:12.327Z,100263.53
2023-03-25T11:31:43.020Z,100245.19
2023-03-25T11:34:10.847Z,100268.94
2023-03-25T11:36:47.693Z,100259.78
2023-03-25T11:39:30.588Z,100261.25
2023-03-25T11:41:59.272Z,100249.97
2023-03-25T11:44:33.321Z,100250.16
2023-03-25T11:47:07.188Z,100289.75
2023-03-25T11:49:38.743Z,100246.47
2023-03-25T11:52:13.411Z,100243.81
2023-03-25T11:54:43.114Z,100240.91
2023-03-25T11:57:23.202Z,100242.19
2023-03-25T12:00:02.143Z,100233.09
2023-03-25T12:02:41.328Z,100229.59
2023-03-25T12:05:15.044Z,100217.44
2023-03-25T12:07:51.701Z,100213.31
2023-03-25T12:10:49.973Z,100209.88
2023-03-25T12:13:32.152Z,100214.66
2023-03-25T12:16:16.447Z,100210.66
2023-03-25T12:19:20.738Z,100192.25
2023-03-25T12:22:07.109Z,100198.28
2023-03-25T12:24:53.583Z,100187.78
2023-03-25T12:27:59.644Z,100186.81
2023-03-25T12:30:42.976Z,100174.63
2023-03-25T12:33:22.495Z,100180.63
2023-03-25T12:36:10.780Z,100191.38
2023-03-25T12:39:04.451Z,100185.72
2023-03-25T12:41:41.951Z,100174.88
2023-03-25T12:44:31.038Z,100174.91
2023-03-25T12:47:23.723Z,100201.31
2023-03-25T12:49:54.138Z,100163.78
2023-03-25T12:52:49.494Z,100181.66
2023-03-25T12:55:30.739Z,100176.13
2023-03-25T12:58:21.575Z,100170.03
2023-03-25T13:01:01.645Z,100176.75
2023-03-25T13:03:48.164Z,100152.78
2023-03-25T13:06:40.850Z,100154.38
2023-03-25T13:09:15.656Z,100155.97
2023-03-25T13:11:49.921Z,100188.94
2023-03-25T13:14:33.856Z,100165.09
2023-03-25T13:17:09.396Z,100151.41
2023-03-25T13:19:44.515Z,100147.47
2023-03-25T13:22:25.351Z,100139.78
2023-03-25T13:25:01.113Z,100143.78
2023-03-25T13:27:36.271Z,100136.63
2023-03-25T13:30:09.439Z,100145.00
2023-03-25T13:32:48.372Z,100132.34
2023-03-25T13:35:37.884Z,100120.94
2023-03-25T13:38:16.413Z,100123.00
2023-03-25T13:41:05.947Z,100127.56
2023-03-25T13:43:47.729Z,100127.88
2023-03-25T13:46:41.135Z,100124.19
2023-03-25T13:49:48.672Z,100097.34
2023-03-25T13:52:18.548Z,100106.47
2023-03-25T13:54:59.891Z,100112.16
2023-03-25T13:57:57.990Z,100117.22
2023-03-25T14:01:21.850Z,100105.91
2023-03-25T14:04:18.783Z,100105.31
2023-03-25T14:07:17.541Z,100105.78
2023-03-25T14:10:03.270Z,100107.38
2023-03-25T14:12:39.956Z,100093.19
2023-03-25T14:15:30.376Z,100097.69
2023-03-25T14:18:00.341Z,100105.34
2023-03-25T14:20:41.796Z,100096.06
2023-03-25T14:23:18.583Z,100102.53
2023-03-25T14:25:50.470Z,100106.72
2023-03-25T14:28:31.833Z,100106.00
2023-03-25T14:31:14.902Z,100124.25
2023-03-25T14:34:04.097Z,100108.84
2023-03-25T14:36:55.912Z,100102.06
2023-03-25T14:39:29.613Z,100114.13
2023-03-25T14:42:11.682Z,100116.84
2023-03-25T14:44:50.116Z,100125.34
2023-03-25T14:47:28.195Z,100126.09
2023-03-25T14:50:05.293Z,100125.59
2023-03-25T14:52:44.156Z,100132.66
2023-03-25T14:55:28.304Z,100124.56
2023-03-25T14:58:01.377Z,100121.84
2023-03-25T15:00:34.437Z,100128.91
2023-03-25T15:03:18.245Z,100115.00
2023-03-25T15:05:56.606Z,100124.38
2023-03-25T15:08:35.715Z,100115.75
2023-03-25T15:11:12.864Z,100116.09
2023-03-25T15:13:46.491Z,100110.28
2023-03-25T15:16:39.944Z,100115.66
2023-03-25T15:19:12.100Z,100119.34
2023-03-25T15:22:11.087Z,100121.41
2023-03-25T15:24:41.501Z,100106.22
2023-03-25T15:27:42.263Z,100114.63
2023-03-25T15:31:01.432Z,100127.31
2023-03-25T15:33:51.213Z,100126.22
2023-03-25T15:36:45.933Z,100124.28
2023-03-25T15:39:36.034Z,100115.88
2023-03-25T15:42:25.451Z,100121.94
2023-03-25T15:45:26.434Z,100118.97
2023-03-25T15:48:16.067Z,100115.69
2023-03-25T15:51:01.821Z,100107.94
2023-03-25T15:53:53.194Z,100107.66
2023-03-25T15:56:26.543Z,100105.50
2023-03-25T15:59:03.685Z,100107.22
2023-03-25T16:01:39.486Z,100111.78
2023-03-25T16:04:25.014Z,100108.69
2023-03-25T16:06:56.874Z,100112.59
2023-03-25T16:09:28.836Z,100108.19
2023-03-25T16:12:02.395Z,100109.16
2023-03-25T16:14:33.046Z,100125.00
2023-03-25T16:17:03.515Z,100112.59
2023-03-25T16:19:40.179Z,100117.84
2023-03-25T16:22:18.277Z,100112.88
2023-03-25T16:24:49.046Z,100112.75
2023-03-25T16:27:38.056Z,100114.41
2023-03-25T16:30:22.883Z,100110.53
2023-03-25T16:32:51.460Z,100117.06
2023-03-25T16:35:27.792Z,100110.09
2023-03-25T16:37:58.727Z,100104.59
2023-03-25T16:40:41.355Z,100108.06
2023-03-25T16:43:35.940Z,100115.84
2023-03-25T16:46:05.845Z,100115.09
2023-03-25T16:48:39.978Z,100116.69
2023-03-25T16:51:23.193Z,100119.53
2023-03-25T16:53:54.112Z,100126.50
2023-03-25T16:56:30.453Z,100120.72
2023-03-25T16:59:21.590Z,100125.91
2023-03-25T17:01:59.851Z,100137.63
2023-03-25T17:04:48.517Z,100133.31
2023-03-25T17:07:21.204Z,100133.94
2023-03-25T17:09:54.526Z,100141.88
2023-03-25T17:12:24.894Z,100138.16
2023-03-25T17:14:58.667Z,100139.59
2023-03-25T17:17:41.844Z,100141.91
2023-03-25T17:20:18.255Z,100144.00
2023-03-25T17:23:00.790Z,100142.63
2023-03-25T17:25:36.905Z,100142.88
2023-03-25T17:28:23.054Z,100151.25
2023-03-25T17:30:51.395Z,100157.72
2023-03-25T17:33:20.997Z,100143.97
2023-03-25T17:35:55.618Z,100146.69
2023-03-25T17:38:37.128Z,100158.75
2023-03-25T17:41:08.324Z,100161.25
2023-03-25T17:43:41.663Z,100162.06
2023-03-25T17:46:10.801Z,100164.97
2023-03-25T17:48:38.828Z,100174.78
2023-03-25T17:51:07.193Z,100169.97
2023-03-25T17:53:35.083Z,100172.41
2023-03-25T17:56:03.816Z,100174.97
2023-03-25T18:01:01.783Z,100181.63
2023-03-25T18:03:32.367Z,100181.22
2023-03-25T18:06:01.124Z,100179.75
2023-03-25T18:08:30.055Z,100188.78
2023-03-25T18:10:59.068Z,100180.72
2023-03-25T18:13:28.073Z,100172.31
2023-03-25T18:15:56.360Z,100178.66
2023-03-25T18:18:26.505Z,100170.72
2023-03-25T18:21:00.412Z,100180.44
2023-03-25T18:23:28.610Z,100182.28
2023-03-25T18:25:58.434Z,100180.34
2023-03-25T18:28:26.505Z,100183.88
2023-03-25T18:30:57.203Z,100187.00
2023-03-25T18:33:25.845Z,100201.31
2023-03-25T18:35:54.027Z,100199.97
2023-03-25T18:38:27.398Z,100197.25
2023-03-25T18:40:57.209Z,100210.69
2023-03-25T18:43:25.297Z,100217.06
2023-03-25T18:45:53.358Z,100213.34
2023-03-25T18:48:22.302Z,100219.13
2023-03-25T18:50:55.638Z,100231.66
2023-03-25T18:53:28.989Z,100235.44
2023-03-25T18:56:02.504Z,100241.00
2023-03-25T18:58:33.143Z,100238.59
2023-03-25T19:01:03.010Z,100245.38
2023-03-25T19:03:31.667Z,100246.81
2023-03-25T19:06:00.901Z,100251.69
2023-03-25T19:08:28.972Z,100252.16
2023-03-25T19:11:04.609Z,100255.75
2023-03-25T19:13:40.862Z,100247.44
2023-03-25T19:16:09.254Z,100250.59
2023-03-25T19:18:37.189Z,100250.91
2023-03-25T19:21:05.795Z,100237.28
2023-03-25T19:23:35.444Z,100256.66
2023-03-25T19:26:04.443Z,100262.69
2023-03-25T19:28:32.503Z,100254.63
2023-03-25T19:31:01.693Z,100258.22
2023-03-25T19:33:31.786Z,100260.63
2023-03-25T19:36:02.076Z,100261.16
2023-03-25T19:38:33.181Z,100269.22
2023-03-25T19:41:07.091Z,100258.66
2023-03-25T19:43:36.122Z,100268.06
2023-03-25T19:46:05.818Z,100267.66
2023-03-25T19:48:34.690Z,100283.34
2023-03-25T19:51:02.906Z,100269.41
2023-03-25T19:53:31.174Z,100274.28
2023-03-25T19:56:04.388Z,100279.19
2023-03-25T19:58:32.862Z,100279.75
2023-03-25T20:01:00.732Z,100287.47
2023-03-25T20:03:31.586Z,100285.31
2023-03-25T20:06:01.118Z,100282.31
2023-03-25T20:08:30.561Z,100278.13
2023-03-25T20:10:58.620Z,100294.38
2023-03-25T20:13:26.912Z,100297.56
2023-03-25T20:15:55.073Z,100303.22
2023-03-25T20:18:23.372Z,100319.75
2023-03-25T20:20:51.777Z,100323.13
2023-03-25T20:23:19.754Z,100326.53
2023-03-25T20:25:47.811Z,100336.41
2023-03-25T20:28:18.631Z,100337.78
2023-03-25T20:30:46.843Z,100351.91
2023-03-25T20:33:14.921Z,100345.06
2023-03-25T20:35:44.257Z,100350.16
2023-03-25T20:38:12.763Z,100340.44
2023-03-25T20:40:44.597Z,100344.34
2023-03-25T20:43:14.869Z,100351.28
2023-03-25T20:45:43.911Z,100339.81
2023-03-25T20:48:12.078Z,100354.22
2023-03-25T20:50:40.768Z,100357.16
2023-03-25T20:53:09.306Z,100358.94
2023-03-25T20:55:37.573Z,100359.09
2023-03-25T20:58:06.447Z,100352.44
2023-03-25T21:00:34.896Z,100350.06
2023-03-25T21:03:05.273Z,100358.31
2023-03-25T21:05:33.766Z,100363.28
2023-03-25T21:08:01.727Z,100368.19
2023-03-25T21:10:29.698Z,100355.38
2023-03-25T21:12:57.612Z,100349.78
2023-03-25T21:15:25.542Z,100357.00
2023-03-25T21:17:53.458Z,100356.66
2023-03-25T21:20:27.248Z,100370.72
2023-03-25T21:22:57.482Z,100371.34
2023-03-25T21:25:34.280Z,100363.31
2023-03-25T21:28:04.535Z,100375.16
2023-03-25T21:30:32.728Z,100365.75
2023-03-25T21:33:00.604Z,100365.31
2023-03-25T21:35:28.718Z,100380.00
2023-03-25T21:37:56.749Z,100377.41
2023-03-25T21:40:24.997Z,100383.00
2023-03-25T21:42:53.101Z,100386.75
2023-03-25T21:45:21.021Z,100385.03
2023-03-25T21:47:53.577Z,100388.53
2023-03-25T21:50:22.012Z,100381.72
2023-03-25T21:52:49.878Z,100379.28
2023-03-25T21:55:17.904Z,100369.53
2023-03-25T21:57:48.059Z,100374.56
2023-03-25T22:00:18.087Z,100364.75
2023-03-25T22:02:47.376Z,100372.03
2023-03-25T22:05:17.449Z,100366.50
2023-03-25T22:07:45.626Z,100364.00
2023-03-25T22:10:13.641Z,100363.25
2023-03-25T22:12:41.783Z,100348.59
2023-03-25T22:15:10.514Z,100346.94
2023-03-25T22:17:38.432Z,100343.13
2023-03-25T22:20:07.136Z,100350.03
2023-03-25T22:22:35.015Z,100349.47
2023-03-25T22:25:04.256Z,100351.03
2023-03-25T22:27:32.220Z,100348.03
2023-03-25T22:30:01.747Z,100342.69
2023-03-25T22:32:29.860Z,100347.84
2023-03-25T22:34:58.431Z,100357.72
2023-03-25T22:37:26.565Z,100360.06
2023-03-25T22:39:54.510Z,100356.91
2023-03-25T22:42:22.411Z,100359.34
2023-03-25T22:44:50.506Z,100367.50
2023-03-25T22:47:18.403Z,100362.91
2023-03-25T22:49:46.322Z,100360.66
2023-03-25T22:52:14.255Z,100350.91
2023-03-25T22:54:42.178Z,100349.22
2023-03-25T22:57:10.112Z,100346.84
2023-03-25T22:59:39.368Z,100346.34
2023-03-25T23:02:08.014Z,100344.97
2023-03-25T23:04:35.864Z,100345.09
2023-03-25T23:07:08.336Z,100346.97
2023-03-25T23:09:44.123Z,100349.22
2023-03-25T23:12:14.933Z,100352.50
2023-03-25T23:14:49.822Z,100360.44
2023-03-25T23:17:18.215Z,100355.09
2023-03-25T23:19:47.557Z,100352.59
2023-03-25T23:22:17.665Z,100352.41
2023-03-25T23:24:46.157Z,100343.97
2023-03-25T23:27:14.575Z,100346.78
2023-03-25T23:29:42.642Z,100353.03
2023-03-25T23:32:11.500Z,100360.84
2023-03-25T23:34:40.466Z,100356.19
2023-03-25T23:37:09.458Z,100370.72
2023-03-25T23:39:37.649Z,100382.47
2023-03-25T23:42:05.609Z,100383.94
2023-03-25T23:44:34.543Z,100385.69
2023-03-25T23:47:02.482Z,100391.19
2023-03-25T23:49:33.448Z,100400.50
2023-03-25T23:52:01.575Z,100391.34
2023-03-25T23:54:29.435Z,100391.53
2023-03-25T23:56:58.032Z,100408.53
2023-03-25T23:59:26.044Z,100408.13
